Time;durP1;ratioP1;P1;durP2;ratioP2;P2;SDS_P1;SDS_P2;PMS_P1;PMS_P2;Temp;Humidity;BMP_temperature;BMP_pressure;BME280_temperature;BME280_humidity;BME280_pressure;Samples;Min_cycle;Max_cycle;Signal;HPM_P1;HPM_P2
2022/03/30 00:01:25;;;;;;;30.35;13.23;;;3.30;99.90;;;;;;5095505;28;20036;-75
2022/03/30 00:03:50;;;;;;;31.40;13.20;;;3.30;99.90;;;;;;5091743;28;20051;-75
2022/03/30 00:06:16;;;;;;;38.55;15.60;;;3.30;99.90;;;;;;5077403;28;20498;-75
2022/03/30 00:08:43;;;;;;;36.40;14.73;;;3.30;99.90;;;;;;5099454;28;20047;-75
2022/03/30 00:11:11;;;;;;;32.28;14.02;;;3.30;99.90;;;;;;5117695;28;20131;-74
2022/03/30 00:13:37;;;;;;;28.58;14.85;;;3.30;99.90;;;;;;5098507;28;20047;-74
2022/03/30 00:16:04;;;;;;;31.50;14.50;;;3.20;99.90;;;;;;5117809;28;20044;-75
2022/03/30 00:18:30;;;;;;;23.63;13.27;;;3.20;99.90;;;;;;5098973;28;20116;-75
2022/03/30 00:20:56;;;;;;;34.72;13.40;;;3.10;99.90;;;;;;5116695;28;20039;-74
2022/03/30 00:23:22;;;;;;;31.23;14.27;;;3.10;99.90;;;;;;5098359;28;20138;-75
2022/03/30 00:25:48;;;;;;;31.33;14.40;;;3.10;99.90;;;;;;5095185;28;20036;-74
2022/03/30 00:28:14;;;;;;;32.03;14.90;;;3.10;99.90;;;;;;5078023;28;20040;-75
2022/03/30 00:30:40;;;;;;;36.28;16.27;;;3.10;99.90;;;;;;5104482;28;20100;-74
2022/03/30 00:33:06;;;;;;;36.33;17.33;;;3.10;99.90;;;;;;5117347;28;20487;-75
2022/03/30 00:35:31;;;;;;;35.63;14.68;;;3.10;99.90;;;;;;5116146;28;20035;-75
2022/03/30 00:37:57;;;;;;;34.15;15.23;;;3.10;99.90;;;;;;5099034;28;20063;-75
2022/03/30 00:40:23;;;;;;;35.95;15.45;;;3.10;99.90;;;;;;5116486;28;20483;-75
2022/03/30 00:42:49;;;;;;;35.20;15.75;;;3.10;99.90;;;;;;5097975;28;20039;-75
2022/03/30 00:45:17;;;;;;;39.85;16.50;;;3.20;99.90;;;;;;5116980;28;20046;-75
2022/03/30 00:47:44;;;;;;;31.25;16.35;;;3.20;99.90;;;;;;5116809;28;20402;-75
2022/03/30 00:50:13;;;;;;;38.90;15.30;;;3.20;99.90;;;;;;5115913;28;20050;-75
2022/03/30 00:52:39;;;;;;;42.15;16.42;;;3.30;99.90;;;;;;5116897;28;20040;-74
2022/03/30 00:55:06;;;;;;;31.75;15.25;;;3.40;99.90;;;;;;5077325;28;20514;-74
2022/03/30 00:57:35;;;;;;;40.58;15.88;;;3.40;99.90;;;;;;5096571;28;20564;-75
2022/03/30 01:00:02;;;;;;;32.80;15.52;;;3.50;99.90;;;;;;5087805;28;20052;-74
2022/03/30 01:02:29;;;;;;;33.13;17.05;;;3.60;99.90;;;;;;5097176;28;20096;-74
2022/03/30 01:04:55;;;;;;;40.50;17.00;;;3.60;99.90;;;;;;5098214;28;20043;-74
2022/03/30 01:07:20;;;;;;;39.20;17.17;;;3.70;99.90;;;;;;5098098;28;20054;-74
2022/03/30 01:09:46;;;;;;;34.38;16.73;;;3.70;99.90;;;;;;5115819;28;20071;-74
2022/03/30 01:12:12;;;;;;;35.75;16.80;;;3.80;99.90;;;;;;5116538;28;20036;-74
2022/03/30 01:14:38;;;;;;;31.52;17.85;;;3.80;99.90;;;;;;5098185;28;20367;-74
2022/03/30 01:17:05;;;;;;;38.28;17.77;;;3.90;99.90;;;;;;5097008;28;20044;-74
2022/03/30 01:19:34;;;;;;;40.35;18.17;;;4.00;99.90;;;;;;5115691;28;20043;-74
2022/03/30 01:22:00;;;;;;;41.58;18.00;;;4.00;99.90;;;;;;5094408;28;20535;-74
2022/03/30 01:24:27;;;;;;;41.72;18.55;;;4.00;99.90;;;;;;5080042;28;20185;-74
2022/03/30 01:26:53;;;;;;;39.00;17.90;;;4.10;99.90;;;;;;5097876;28;20048;-74
2022/03/30 01:34:48;;;;;;;38.08;19.80;;;4.20;99.90;;;;;;5116180;28;20554;-74
2022/03/30 01:37:14;;;;;;;37.60;17.13;;;4.20;99.90;;;;;;5115084;28;20115;-74
2022/03/30 01:39:41;;;;;;;28.10;15.57;;;4.20;99.90;;;;;;5115737;28;20047;-74
2022/03/30 01:42:08;;;;;;;40.58;18.20;;;4.20;99.90;;;;;;5097231;28;20506;-74
2022/03/30 01:44:34;;;;;;;30.92;16.50;;;4.30;99.90;;;;;;5114799;28;20046;-74
2022/03/30 01:47:00;;;;;;;41.63;16.75;;;4.30;99.90;;;;;;5097388;28;20056;-74
2022/03/30 01:49:26;;;;;;;37.92;16.48;;;4.30;99.90;;;;;;5097579;28;20054;-74
2022/03/30 01:51:55;;;;;;;27.45;14.85;;;4.40;99.90;;;;;;5096617;28;20051;-74
2022/03/30 01:54:23;;;;;;;31.67;16.58;;;4.40;99.90;;;;;;5115594;28;20130;-74
2022/03/30 01:56:50;;;;;;;35.47;17.13;;;4.40;99.90;;;;;;5115774;28;20495;-74
2022/03/30 01:59:16;;;;;;;37.45;16.17;;;4.40;99.90;;;;;;5096107;28;20051;-74
2022/03/30 02:01:42;;;;;;;34.40;15.85;;;4.50;99.90;;;;;;5097285;28;20051;-74
2022/03/30 02:04:09;;;;;;;38.70;15.43;;;4.50;99.90;;;;;;5096750;28;20055;-74
2022/03/30 02:06:36;;;;;;;33.30;16.42;;;4.50;99.90;;;;;;5079711;28;20051;-74
2022/03/30 02:09:06;;;;;;;37.35;18.33;;;4.60;99.90;;;;;;5096625;28;20429;-74
2022/03/30 02:11:33;;;;;;;33.92;17.17;;;4.60;99.90;;;;;;5114618;28;20167;-74
2022/03/30 02:14:00;;;;;;;33.95;17.52;;;4.60;99.90;;;;;;5114909;28;20043;-74
2022/03/30 02:16:26;;;;;;;40.20;17.27;;;4.70;99.90;;;;;;5096793;28;20082;-74
2022/03/30 02:18:52;;;;;;;35.90;17.55;;;4.70;99.90;;;;;;5114973;28;20050;-74
2022/03/30 02:21:18;;;;;;;36.60;19.17;;;4.70;99.90;;;;;;5114508;28;20436;-74
2022/03/30 02:23:45;;;;;;;37.63;19.88;;;4.70;99.90;;;;;;5096976;28;20052;-74
2022/03/30 02:26:13;;;;;;;44.45;20.05;;;4.70;99.90;;;;;;5114508;28;20040;-74
2022/03/30 02:28:40;;;;;;;50.22;18.73;;;4.80;99.90;;;;;;5096183;28;20047;-74
2022/03/30 02:31:05;;;;;;;39.45;19.20;;;4.80;99.90;;;;;;5095773;28;20507;-74
2022/03/30 02:33:31;;;;;;;45.58;21.27;;;4.80;99.90;;;;;;5114196;28;20074;-74
2022/03/30 02:35:57;;;;;;;41.33;18.65;;;4.80;99.90;;;;;;5096720;28;20097;-74
2022/03/30 02:38:23;;;;;;;37.20;17.58;;;4.80;99.90;;;;;;5079906;28;20059;-74
2022/03/30 02:40:49;;;;;;;37.90;17.70;;;4.80;99.90;;;;;;5095593;28;20031;-74
2022/03/30 02:43:17;;;;;;;40.33;16.50;;;4.80;99.90;;;;;;5079415;28;20039;-74
2022/03/30 02:45:43;;;;;;;39.20;16.92;;;4.80;99.90;;;;;;5114446;28;20054;-74
2022/03/30 02:48:18;;;;;;;31.83;15.77;;;4.80;99.90;;;;;;5095641;28;20039;-74
2022/03/30 02:50:49;;;;;;;39.45;18.08;;;4.80;99.90;;;;;;5114289;28;20044;-74
2022/03/30 02:53:16;;;;;;;35.83;17.38;;;4.90;99.90;;;;;;5096462;28;20138;-74
2022/03/30 02:55:43;;;;;;;45.85;16.38;;;4.90;99.90;;;;;;5113415;28;20431;-74
2022/03/30 02:58:10;;;;;;;37.40;16.23;;;4.90;99.90;;;;;;5096291;28;20486;-74
2022/03/30 03:00:37;;;;;;;39.10;16.58;;;4.90;99.90;;;;;;5114411;28;20040;-74
2022/03/30 03:03:03;;;;;;;40.35;17.33;;;5.00;99.90;;;;;;5095339;28;20406;-74
2022/03/30 03:05:32;;;;;;;34.33;17.95;;;5.00;99.90;;;;;;5095626;28;20058;-74
2022/03/30 03:08:03;;;;;;;34.20;15.90;;;5.00;99.90;;;;;;5091041;28;20046;-74
2022/03/30 03:10:30;;;;;;;33.42;16.33;;;5.00;99.90;;;;;;5095655;28;20093;-74
2022/03/30 03:12:56;;;;;;;39.00;16.67;;;5.00;99.90;;;;;;5096013;28;20189;-74
2022/03/30 03:15:22;;;;;;;38.80;16.50;;;5.10;99.90;;;;;;5095705;28;20134;-74
2022/03/30 03:17:48;;;;;;;34.35;15.88;;;5.10;99.90;;;;;;5095032;28;20055;-74
2022/03/30 03:20:15;;;;;;;32.85;16.35;;;5.10;99.90;;;;;;5096068;28;20051;-74
2022/03/30 03:22:41;;;;;;;25.85;12.05;;;5.10;99.90;;;;;;5113143;28;20130;-74
2022/03/30 03:25:08;;;;;;;26.35;10.43;;;5.20;99.90;;;;;;5095893;28;20047;-74
2022/03/30 03:27:34;;;;;;;18.20;8.50;;;5.20;99.90;;;;;;5113866;28;20063;-74
2022/03/30 03:30:00;;;;;;;16.65;6.97;;;5.20;99.90;;;;;;5113197;28;20554;-74
2022/03/30 03:32:26;;;;;;;13.45;5.68;;;5.30;99.90;;;;;;5095454;28;20530;-74
2022/03/30 03:34:52;;;;;;;10.55;4.18;;;5.30;99.90;;;;;;5113752;28;20195;-74
2022/03/30 03:37:18;;;;;;;10.80;3.80;;;5.30;99.90;;;;;;5094878;28;20387;-74
2022/03/30 03:39:44;;;;;;;9.02;3.17;;;5.40;99.90;;;;;;5114065;28;20043;-74
2022/03/30 03:42:10;;;;;;;4.30;2.17;;;5.40;99.90;;;;;;5095259;28;20487;-74
2022/03/30 03:44:36;;;;;;;4.15;1.35;;;5.40;99.90;;;;;;5094618;28;20058;-74
2022/03/30 03:47:03;;;;;;;3.70;1.60;;;5.40;99.90;;;;;;5095678;28;20104;-74
2022/03/30 03:49:29;;;;;;;2.03;1.25;;;5.50;99.90;;;;;;5113608;28;20040;-74
2022/03/30 03:51:55;;;;;;;3.58;0.73;;;5.40;99.90;;;;;;5077815;28;20051;-74
2022/03/30 03:54:21;;;;;;;0.98;0.70;;;5.50;99.90;;;;;;5095104;28;20566;-74
2022/03/30 03:56:47;;;;;;;3.67;0.77;;;5.40;99.90;;;;;;5095474;28;20094;-74
2022/03/30 03:59:13;;;;;;;2.05;0.40;;;5.50;99.90;;;;;;5094620;28;20040;-74
2022/03/30 04:01:39;;;;;;;2.30;0.30;;;5.40;99.90;;;;;;5113578;28;20035;-74
2022/03/30 04:04:05;;;;;;;3.45;0.70;;;5.40;99.90;;;;;;5095012;28;20407;-74
2022/03/30 04:06:32;;;;;;;3.70;0.40;;;5.40;99.90;;;;;;5094463;28;20083;-74
2022/03/30 04:08:58;;;;;;;5.38;0.60;;;5.40;99.90;;;;;;5113718;28;20075;-74
2022/03/30 04:11:24;;;;;;;3.15;0.52;;;5.30;99.90;;;;;;5094910;28;20078;-74
2022/03/30 04:13:50;;;;;;;3.72;0.50;;;5.30;99.90;;;;;;5113157;28;20046;-74
2022/03/30 04:16:16;;;;;;;1.73;0.50;;;5.30;99.90;;;;;;5095255;28;20043;-74
2022/03/30 04:18:43;;;;;;;1.52;0.40;;;5.30;99.90;;;;;;5095061;28;20108;-74
2022/03/30 04:21:10;;;;;;;1.05;0.30;;;5.30;99.90;;;;;;5094588;28;20089;-74
2022/03/30 04:23:36;;;;;;;3.00;0.40;;;5.20;99.90;;;;;;5074914;28;20044;-74
2022/03/30 04:26:03;;;;;;;1.38;0.40;;;5.30;99.90;;;;;;5057402;28;20040;-74
2022/03/30 04:28:29;;;;;;;1.52;0.50;;;5.20;99.90;;;;;;5113252;28;20443;-74
2022/03/30 04:30:55;;;;;;;2.45;0.70;;;5.20;99.90;;;;;;5113475;28;20040;-74
2022/03/30 04:33:20;;;;;;;2.13;0.47;;;5.20;99.90;;;;;;5112101;28;20139;-74
2022/03/30 04:35:47;;;;;;;0.30;0.30;;;5.20;99.90;;;;;;5113368;28;20068;-74
2022/03/30 04:38:14;;;;;;;0.60;0.50;;;5.10;99.90;;;;;;5113303;28;20435;-74
2022/03/30 04:40:40;;;;;;;0.90;0.40;;;5.20;99.90;;;;;;5094594;28;20044;-74
2022/03/30 04:43:06;;;;;;;1.23;0.50;;;5.10;99.90;;;;;;5078001;28;20031;-74
2022/03/30 04:45:33;;;;;;;1.67;0.73;;;5.10;99.90;;;;;;5113187;28;20490;-75
2022/03/30 04:47:59;;;;;;;0.63;0.63;;;5.10;99.90;;;;;;5094233;28;20050;-74
2022/03/30 04:50:26;;;;;;;1.08;0.65;;;5.00;99.90;;;;;;5094582;28;20402;-74
2022/03/30 04:52:52;;;;;;;1.52;0.50;;;4.90;99.90;;;;;;5095489;28;20050;-74
2022/03/30 04:55:19;;;;;;;3.38;0.70;;;4.90;99.90;;;;;;5115882;28;20399;-74
2022/03/30 04:57:46;;;;;;;1.58;0.57;;;4.90;99.90;;;;;;5117032;28;20044;-74
2022/03/30 05:00:13;;;;;;;3.22;0.65;;;4.80;99.90;;;;;;5116217;28;20043;-74
2022/03/30 05:02:40;;;;;;;1.23;0.65;;;4.80;99.90;;;;;;5080914;28;20082;-74
2022/03/30 05:05:10;;;;;;;3.70;0.60;;;4.70;99.90;;;;;;5095571;28;20105;-74
2022/03/30 05:07:37;;;;;;;1.33;0.63;;;4.70;99.90;;;;;;5116417;28;20031;-75
2022/03/30 05:10:10;;;;;;;2.45;0.60;;;4.70;99.90;;;;;;5097510;28;20090;-74
2022/03/30 05:12:36;;;;;;;6.03;1.35;;;4.60;99.90;;;;;;5091102;28;20039;-74
2022/03/30 05:15:02;;;;;;;3.28;0.68;;;4.50;99.90;;;;;;5094837;28;20060;-75
2022/03/30 05:17:27;;;;;;;2.22;0.80;;;4.50;99.90;;;;;;5097376;28;20417;-74
2022/03/30 05:19:53;;;;;;;3.83;0.90;;;4.50;99.90;;;;;;5116639;28;20038;-74
2022/03/30 05:22:19;;;;;;;1.02;0.70;;;4.40;99.90;;;;;;5096934;28;20047;-74
2022/03/30 05:24:45;;;;;;;3.80;0.73;;;4.40;99.90;;;;;;5116578;28;20051;-74
2022/03/30 05:27:11;;;;;;;2.40;0.70;;;4.40;99.90;;;;;;5098005;28;20048;-74
2022/03/30 05:29:37;;;;;;;3.78;1.02;;;4.30;99.90;;;;;;5115345;28;20403;-74
2022/03/30 05:32:03;;;;;;;2.92;1.10;;;4.30;99.90;;;;;;5097632;28;20036;-74
2022/03/30 05:34:29;;;;;;;4.35;0.93;;;4.20;99.90;;;;;;5064046;28;20044;-74
2022/03/30 05:36:57;;;;;;;2.25;0.80;;;4.20;99.90;;;;;;5114881;28;20048;-74
2022/03/30 05:39:22;;;;;;;2.15;0.80;;;4.10;99.90;;;;;;5116154;28;20047;-74
2022/03/30 05:41:48;;;;;;;5.35;1.50;;;4.10;99.90;;;;;;5097796;28;20546;-74
2022/03/30 05:44:14;;;;;;;4.03;0.90;;;4.00;99.90;;;;;;5096785;28;20044;-74
2022/03/30 05:46:40;;;;;;;1.85;0.80;;;3.80;99.90;;;;;;5080864;28;20383;-74
2022/03/30 05:49:06;;;;;;;1.25;0.98;;;3.90;99.90;;;;;;5115671;28;20497;-74
2022/03/30 05:51:32;;;;;;;1.83;0.80;;;3.90;99.90;;;;;;5093383;28;20044;-74
2022/03/30 05:53:58;;;;;;;1.35;0.57;;;3.80;99.90;;;;;;5077501;28;20530;-74
2022/03/30 05:59:09;;;;;;;1.95;0.80;;;3.80;99.90;;;;;;5096890;28;20079;-75
2022/03/30 06:01:35;;;;;;;3.58;1.08;;;3.80;99.90;;;;;;5097438;28;20045;-75
2022/03/30 06:04:02;;;;;;;1.73;1.20;;;3.80;99.90;;;;;;5096483;28;20499;-74
2022/03/30 06:06:28;;;;;;;9.57;2.33;;;3.80;99.90;;;;;;5114093;28;20096;-75
2022/03/30 06:08:54;;;;;;;2.53;1.00;;;3.80;99.90;;;;;;5115267;28;20047;-74
2022/03/30 06:11:19;;;;;;;3.03;0.90;;;3.90;99.90;;;;;;5096626;28;20057;-74
2022/03/30 06:13:45;;;;;;;5.70;0.98;;;3.90;99.90;;;;;;5113062;28;20082;-73
2022/03/30 06:16:13;;;;;;;3.47;1.08;;;3.90;99.90;;;;;;5113630;28;20399;-73
2022/03/30 06:18:39;;;;;;;2.55;0.93;;;3.90;99.90;;;;;;5096013;28;20058;-73
2022/03/30 06:21:05;;;;;;;1.83;0.88;;;3.90;99.90;;;;;;5100810;28;20044;-73
2022/03/30 06:23:31;;;;;;;3.53;1.55;;;4.00;99.90;;;;;;5094738;28;20063;-73
2022/03/30 06:25:57;;;;;;;2.17;0.98;;;4.00;99.90;;;;;;5113957;28;20043;-73
2022/03/30 06:28:26;;;;;;;1.75;0.90;;;4.00;99.90;;;;;;5114608;28;20137;-73
2022/03/30 06:30:53;;;;;;;3.58;1.30;;;4.00;99.90;;;;;;5115102;28;20032;-73
2022/03/30 06:33:19;;;;;;;4.50;1.23;;;4.10;99.90;;;;;;5113781;28;20050;-73
2022/03/30 06:35:44;;;;;;;3.10;1.08;;;4.20;99.90;;;;;;5115164;28;20031;-73
2022/03/30 06:38:11;;;;;;;2.70;1.08;;;4.20;99.90;;;;;;5114477;28;20055;-73
2022/03/30 06:40:37;;;;;;;2.10;1.67;;;4.30;99.90;;;;;;5096124;28;20066;-73
2022/03/30 06:43:04;;;;;;;3.20;1.60;;;4.30;99.90;;;;;;5092823;28;20052;-73
2022/03/30 06:45:30;;;;;;;4.70;1.38;;;4.40;99.90;;;;;;5075809;28;20094;-73
2022/03/30 06:47:56;;;;;;;3.88;1.05;;;4.40;99.90;;;;;;5083121;28;20047;-73
2022/03/30 06:50:22;;;;;;;4.25;1.35;;;4.50;99.90;;;;;;5114300;28;20040;-74
2022/03/30 06:52:48;;;;;;;4.97;1.20;;;4.60;99.90;;;;;;5114029;28;20035;-73
2022/03/30 06:55:15;;;;;;;4.75;1.50;;;4.70;99.90;;;;;;5113524;28;20431;-73
2022/03/30 06:57:42;;;;;;;3.33;1.73;;;4.80;99.90;;;;;;5114621;28;20192;-73
2022/03/30 07:00:12;;;;;;;3.05;1.35;;;4.80;99.90;;;;;;5095836;28;20044;-73
2022/03/30 07:02:38;;;;;;;2.83;1.35;;;5.00;99.90;;;;;;5113801;28;20497;-73
2022/03/30 07:05:04;;;;;;;9.57;2.15;;;5.00;99.90;;;;;;5113973;28;20123;-73
2022/03/30 07:10:15;;;;;;;6.35;1.52;;;5.20;99.90;;;;;;5113926;28;20071;-73
2022/03/30 07:12:48;;;;;;;5.10;1.42;;;5.20;99.90;;;;;;5095692;28;20075;-73
2022/03/30 07:15:17;;;;;;;5.53;2.15;;;5.30;99.90;;;;;;5113008;28;20453;-73
2022/03/30 07:17:54;;;;;;;3.50;1.20;;;5.40;99.90;;;;;;5078695;28;20086;-73
2022/03/30 07:20:22;;;;;;;7.32;1.70;;;5.40;99.90;;;;;;5113670;28;20055;-73
2022/03/30 07:22:49;;;;;;;4.50;1.52;;;5.50;99.90;;;;;;5113254;28;20043;-73
2022/03/30 07:25:16;;;;;;;9.05;1.27;;;5.60;99.90;;;;;;5113782;28;20044;-73
2022/03/30 07:27:44;;;;;;;3.38;1.50;;;5.70;99.90;;;;;;5112888;28;20044;-74
2022/03/30 07:30:12;;;;;;;5.88;1.98;;;5.70;99.90;;;;;;5077397;28;20122;-73
2022/03/30 07:32:39;;;;;;;4.22;1.35;;;5.80;99.90;;;;;;5095046;28;20445;-73
2022/03/30 07:35:07;;;;;;;4.82;1.67;;;5.90;99.90;;;;;;5078600;28;20105;-74
2022/03/30 07:37:33;;;;;;;4.63;1.30;;;5.90;99.90;;;;;;5094669;28;20039;-73
2022/03/30 07:39:59;;;;;;;6.10;1.55;;;6.00;99.90;;;;;;5113665;28;20043;-73
2022/03/30 07:42:25;;;;;;;3.30;1.23;;;6.00;99.90;;;;;;5113271;28;20048;-73
2022/03/30 07:44:51;;;;;;;6.75;1.27;;;6.10;99.90;;;;;;5112991;28;20050;-73
2022/03/30 07:47:18;;;;;;;5.22;1.73;;;6.10;99.90;;;;;;5113425;28;20562;-73
2022/03/30 07:49:44;;;;;;;8.65;1.58;;;6.20;99.90;;;;;;5095364;28;20075;-73
2022/03/30 07:52:10;;;;;;;3.72;1.48;;;6.20;99.90;;;;;;5112641;28;20079;-73
2022/03/30 07:54:36;;;;;;;4.05;1.58;;;6.30;99.90;;;;;;5113649;28;20494;-74
2022/03/30 07:57:02;;;;;;;6.95;1.38;;;6.30;99.90;;;;;;5112476;28;20035;-73
2022/03/30 07:59:28;;;;;;;8.23;1.25;;;6.30;99.90;;;;;;5113521;28;20040;-74
2022/03/30 08:01:54;;;;;;;5.07;1.25;;;6.30;99.90;;;;;;5078062;28;20044;-74
2022/03/30 08:04:20;;;;;;;6.38;1.50;;;6.30;99.90;;;;;;5112573;28;20130;-74
2022/03/30 08:06:46;;;;;;;10.40;1.50;;;6.40;99.90;;;;;;5095075;28;20534;-74
2022/03/30 08:09:12;;;;;;;6.45;1.77;;;6.40;99.90;;;;;;5113385;28;20047;-74
2022/03/30 08:11:38;;;;;;;4.93;0.95;;;6.50;99.90;;;;;;5094273;28;20032;-73
2022/03/30 08:14:04;;;;;;;4.97;1.42;;;6.50;99.90;;;;;;5113505;28;20440;-73
2022/03/30 08:16:32;;;;;;;7.57;1.13;;;6.50;99.90;;;;;;5113159;28;20120;-74
2022/03/30 08:18:58;;;;;;;7.13;1.40;;;6.50;99.90;;;;;;5077153;28;20044;-73
2022/03/30 08:24:09;;;;;;;4.63;1.00;;;6.60;99.90;;;;;;5110350;28;20047;-73
2022/03/30 08:26:39;;;;;;;6.75;1.95;;;6.70;99.90;;;;;;5105709;28;20031;-73
2022/03/30 08:29:06;;;;;;;5.55;1.40;;;6.70;99.90;;;;;;5097751;28;20105;-73
2022/03/30 08:31:33;;;;;;;4.13;1.33;;;6.80;99.90;;;;;;5102998;28;20032;-74
2022/03/30 08:33:59;;;;;;;7.95;1.58;;;6.90;99.90;;;;;;5116648;28;20553;-74
2022/03/30 08:36:31;;;;;;;6.78;1.20;;;7.00;99.90;;;;;;5099365;28;20127;-74
2022/03/30 08:38:59;;;;;;;6.85;1.27;;;7.00;99.90;;;;;;5098533;28;20048;-73
2022/03/30 08:41:35;;;;;;;7.35;1.83;;;7.00;99.90;;;;;;5097125;28;20051;-73
2022/03/30 08:44:04;;;;;;;5.57;1.00;;;6.90;99.90;;;;;;5078245;28;20105;-74
2022/03/30 08:46:31;;;;;;;5.30;1.00;;;6.90;99.90;;;;;;5077855;28;20470;-73
2022/03/30 08:48:57;;;;;;;6.10;1.40;;;6.90;99.90;;;;;;5061908;28;20047;-73
2022/03/30 08:51:34;;;;;;;3.75;0.90;;;6.90;99.90;;;;;;5061156;28;20059;-73
2022/03/30 08:54:00;;;;;;;9.05;1.35;;;7.00;99.90;;;;;;5095874;28;20040;-73
2022/03/30 08:56:28;;;;;;;3.80;0.75;;;7.10;99.90;;;;;;5078471;28;20515;-73
2022/03/30 08:58:55;;;;;;;5.97;0.90;;;7.20;99.90;;;;;;5096485;28;20055;-72
2022/03/30 09:01:24;;;;;;;1.83;0.73;;;7.20;99.90;;;;;;5095674;28;20067;-73
2022/03/30 09:03:57;;;;;;;1.77;0.50;;;7.20;99.90;;;;;;5096217;28;20510;-74
2022/03/30 09:06:38;;;;;;;8.80;1.70;;;7.20;99.90;;;;;;5095912;28;20044;-73
2022/03/30 09:09:06;;;;;;;7.95;1.10;;;7.10;99.90;;;;;;5095503;28;20086;-73
2022/03/30 09:11:41;;;;;;;5.88;0.75;;;7.10;99.90;;;;;;5077972;28;20090;-74
2022/03/30 09:14:15;;;;;;;1.92;0.50;;;7.00;99.90;;;;;;5095738;28;20078;-73
2022/03/30 09:16:44;;;;;;;4.47;0.80;;;7.00;99.90;;;;;;5089152;28;20088;-73
2022/03/30 09:19:16;;;;;;;3.55;0.57;;;6.90;99.90;;;;;;5080918;28;20043;-74
2022/03/30 09:21:57;;;;;;;4.13;0.80;;;6.90;99.90;;;;;;5088553;28;20440;-73
2022/03/30 09:24:30;;;;;;;6.55;0.68;;;7.10;99.90;;;;;;5097403;28;20108;-73
2022/03/30 09:26:57;;;;;;;2.85;0.60;;;7.20;99.90;;;;;;5115237;28;20483;-73
2022/03/30 09:29:26;;;;;;;3.33;0.75;;;7.20;99.90;;;;;;5115579;28;20054;-73
2022/03/30 09:31:52;;;;;;;4.07;0.80;;;7.30;99.90;;;;;;5097049;28;20082;-73
2022/03/30 09:34:21;;;;;;;4.53;0.80;;;7.30;99.90;;;;;;5115416;28;20054;-73
2022/03/30 09:36:51;;;;;;;2.40;0.60;;;7.30;99.90;;;;;;5097141;28;20079;-73
2022/03/30 09:39:36;;;;;;;1.40;0.40;;;7.40;99.90;;;;;;5115330;28;20038;-73
2022/03/30 09:42:03;;;;;;;;;;;7.50;99.90;;;;;;5116344;28;20043;-73
2022/03/30 09:44:30;;;;;;;3.55;0.70;;;7.50;99.90;;;;;;5095657;28;19919;-73
2022/03/30 09:47:06;;;;;;;2.33;0.80;;;7.60;99.90;;;;;;5080016;28;20036;-73
2022/03/30 09:49:37;;;;;;;5.22;1.10;;;7.60;99.90;;;;;;5096214;28;20043;-74
2022/03/30 09:52:27;;;;;;;5.57;0.55;;;7.50;99.90;;;;;;5085375;28;20059;-74
2022/03/30 09:54:54;;;;;;;2.85;0.77;;;7.40;99.90;;;;;;5115296;28;20087;-73
2022/03/30 09:57:24;;;;;;;5.72;0.68;;;7.40;99.90;;;;;;5097197;28;20097;-73
2022/03/30 10:00:10;;;;;;;3.45;0.70;;;7.40;99.90;;;;;;5097601;28;20577;-74
2022/03/30 10:02:37;;;;;;;2.42;0.63;;;7.30;99.90;;;;;;5115520;28;20134;-73
2022/03/30 10:05:05;;;;;;;5.55;0.85;;;7.30;99.90;;;;;;5096804;28;20130;-73
2022/03/30 10:07:31;;;;;;;2.42;0.80;;;7.40;99.90;;;;;;5080493;28;20458;-73
2022/03/30 10:09:59;;;;;;;4.85;2.25;;;7.40;99.90;;;;;;5096988;28;20047;-73
2022/03/30 10:12:26;;;;;;;8.45;1.30;;;7.40;99.90;;;;;;5097055;28;20491;-73
2022/03/30 10:14:53;;;;;;;4.95;0.73;;;7.50;99.90;;;;;;5097519;28;20122;-73
2022/03/30 10:17:20;;;;;;;3.08;0.77;;;7.60;99.90;;;;;;5115302;28;20053;-73
2022/03/30 10:19:46;;;;;;;13.68;1.85;;;7.80;99.90;;;;;;5096798;28;20388;-73
2022/03/30 10:22:30;;;;;;;5.63;1.13;;;8.00;99.90;;;;;;5115424;28;20096;-73
2022/03/30 10:25:18;;;;;;;1.65;0.40;;;8.20;99.90;;;;;;5096365;28;20083;-73
2022/03/30 10:27:57;;;;;;;4.95;0.88;;;8.30;99.90;;;;;;5097181;28;20057;-73
2022/03/30 10:30:33;;;;;;;4.88;0.85;;;8.30;99.90;;;;;;5079562;28;20051;-74
2022/03/30 10:33:01;;;;;;;3.25;0.80;;;8.40;99.90;;;;;;5079744;28;20057;-73
2022/03/30 10:35:47;;;;;;;8.90;1.02;;;8.50;99.90;;;;;;5115186;28;20043;-73
2022/03/30 10:38:15;;;;;;;4.57;0.80;;;8.30;99.90;;;;;;5114919;28;20066;-73
2022/03/30 10:40:42;;;;;;;1.80;0.68;;;8.10;99.90;;;;;;5114238;28;20055;-73
2022/03/30 10:43:09;;;;;;;2.58;0.60;;;8.10;99.90;;;;;;5096637;28;20548;-72
2022/03/30 10:45:59;;;;;;;3.35;0.70;;;8.20;99.90;;;;;;5096377;28;20052;-73
2022/03/30 10:48:34;;;;;;;2.13;0.70;;;8.30;99.90;;;;;;5096883;28;20055;-72
2022/03/30 10:51:13;;;;;;;2.72;0.90;;;8.60;99.90;;;;;;5113826;28;20055;-73
2022/03/30 10:54:01;;;;;;;4.88;0.80;;;8.80;99.90;;;;;;5114229;28;20051;-73
2022/03/30 10:56:28;;;;;;;1.23;0.47;;;8.80;99.90;;;;;;5114616;28;20122;-73
2022/03/30 10:58:56;;;;;;;3.40;0.60;;;8.80;99.90;;;;;;5079490;28;20122;-73
2022/03/30 11:01:22;;;;;;;2.78;0.45;;;9.00;99.90;;;;;;5095843;28;20396;-73
2022/03/30 11:04:03;;;;;;;1.33;0.35;;;9.10;99.90;;;;;;5096172;28;20068;-72
2022/03/30 11:06:34;;;;;;;5.22;0.50;;;9.00;99.90;;;;;;5096906;28;20114;-72
2022/03/30 11:09:01;;;;;;;2.92;0.70;;;8.90;99.90;;;;;;5095511;28;20534;-74
2022/03/30 11:11:39;;;;;;;3.92;0.77;;;8.90;99.90;;;;;;5096181;28;20039;-73
2022/03/30 11:14:24;;;;;;;4.20;0.85;;;8.90;99.90;;;;;;5113645;28;20075;-72
2022/03/30 11:16:53;;;;;;;3.72;0.47;;;9.00;99.90;;;;;;5096384;28;20403;-73
2022/03/30 11:19:19;;;;;;;5.18;0.65;;;9.10;99.90;;;;;;5114063;28;20430;-73
2022/03/30 11:22:12;;;;;;;3.55;1.10;;;8.90;99.90;;;;;;5095564;28;20062;-73
2022/03/30 11:24:41;;;;;;;1.52;0.50;;;8.80;99.90;;;;;;5114239;28;20040;-73
2022/03/30 11:27:07;;;;;;;1.33;0.38;;;9.00;99.90;;;;;;5113851;28;20092;-74
2022/03/30 11:29:48;;;;;;;3.08;0.77;;;9.00;99.90;;;;;;5113435;28;20044;-73
2022/03/30 11:32:26;;;;;;;1.38;0.47;;;9.00;99.90;;;;;;5114120;28;20050;-72
2022/03/30 11:35:07;;;;;;;5.25;1.15;;;8.90;99.90;;;;;;5095328;28;20048;-72
2022/03/30 11:37:56;;;;;;;8.23;1.38;;;8.60;99.90;;;;;;5095870;28;20055;-73
2022/03/30 11:40:22;;;;;;;3.05;1.02;;;8.60;99.90;;;;;;5078181;28;20055;-73
2022/03/30 11:42:58;;;;;;;2.50;0.70;;;8.60;99.90;;;;;;5078485;28;20125;-73
2022/03/30 11:45:27;;;;;;;3.80;1.13;;;8.60;99.90;;;;;;5113864;28;20050;-72
2022/03/30 11:48:00;;;;;;;2.97;0.93;;;8.60;99.90;;;;;;5113631;28;20044;-73
2022/03/30 11:50:28;;;;;;;7.70;1.50;;;8.70;99.90;;;;;;5095222;28;20051;-74
2022/03/30 11:52:57;;;;;;;4.47;1.15;;;8.70;99.90;;;;;;5095484;28;20043;-73
2022/03/30 11:55:24;;;;;;;4.35;1.00;;;8.70;99.90;;;;;;5113543;28;20486;-73
2022/03/30 11:57:51;;;;;;;3.40;0.90;;;8.90;99.90;;;;;;5095464;28;20035;-73
2022/03/30 12:00:21;;;;;;;7.75;1.10;;;8.90;99.90;;;;;;5095553;28;20054;-73
2022/03/30 12:02:46;;;;;;;3.80;0.82;;;8.70;99.90;;;;;;5097855;28;20047;-73
2022/03/30 12:05:12;;;;;;;7.45;1.00;;;8.70;99.90;;;;;;5098700;28;20398;-72
2022/03/30 12:07:39;;;;;;;3.92;0.98;;;8.70;99.90;;;;;;5099850;28;20035;-73
2022/03/30 12:10:12;;;;;;;8.65;1.05;;;8.80;99.90;;;;;;5099613;28;20043;-73
2022/03/30 12:12:40;;;;;;;2.70;0.80;;;8.90;99.90;;;;;;5083027;28;20035;-72
2022/03/30 12:15:17;;;;;;;2.40;0.70;;;8.90;99.90;;;;;;5117514;28;20043;-73
2022/03/30 12:17:49;;;;;;;3.13;0.90;;;8.80;99.90;;;;;;5099128;28;20481;-72
2022/03/30 12:20:28;;;;;;;4.80;0.75;;;8.80;99.90;;;;;;5099613;28;20040;-72
2022/03/30 12:23:05;;;;;;;7.60;0.90;;;8.90;99.90;;;;;;5117409;28;20127;-73
2022/03/30 12:25:34;;;;;;;4.18;0.73;;;8.90;99.90;;;;;;5098622;28;20052;-73
2022/03/30 12:28:00;;;;;;;4.20;1.38;;;8.90;99.90;;;;;;5099230;28;20118;-73
2022/03/30 12:30:29;;;;;;;2.35;0.70;;;9.00;99.30;;;;;;5099010;28;20051;-72
2022/03/30 12:32:55;;;;;;;4.38;1.05;;;9.10;99.90;;;;;;5098529;28;20491;-72
2022/03/30 12:35:21;;;;;;;4.88;0.77;;;9.30;99.90;;;;;;5099142;28;20072;-73
2022/03/30 12:37:49;;;;;;;6.35;0.85;;;9.40;98.00;;;;;;5117281;28;20121;-73
2022/03/30 12:40:18;;;;;;;2.92;0.57;;;9.50;98.80;;;;;;5098590;28;20047;-72
2022/03/30 12:42:45;;;;;;;3.13;0.60;;;9.60;99.30;;;;;;5117260;28;20384;-73
2022/03/30 12:45:14;;;;;;;1.95;0.50;;;9.70;98.40;;;;;;5098610;28;20398;-75
2022/03/30 12:47:55;;;;;;;5.15;0.60;;;9.60;97.30;;;;;;5098285;28;20047;-73
2022/03/30 12:50:33;;;;;;;3.03;0.80;;;9.30;96.00;;;;;;5116817;28;20039;-72
2022/03/30 12:53:15;;;;;;;3.08;0.80;;;9.00;97.00;;;;;;5096079;28;20040;-74
2022/03/30 12:55:54;;;;;;;3.65;0.70;;;8.90;98.30;;;;;;5096736;28;20058;-73
2022/03/30 12:58:23;;;;;;;2.03;0.60;;;8.90;97.90;;;;;;5096452;28;20113;-73
2022/03/30 13:00:56;;;;;;;5.00;0.68;;;8.80;98.20;;;;;;5077912;28;20058;-72
2022/03/30 13:03:27;;;;;;;2.72;0.68;;;8.90;97.50;;;;;;5078156;28;20048;-73
2022/03/30 13:06:09;;;;;;;3.13;0.90;;;8.90;98.70;;;;;;5096182;28;20380;-72
2022/03/30 13:08:37;;;;;;;4.90;0.60;;;9.00;98.40;;;;;;5077877;28;20458;-73
2022/03/30 13:11:08;;;;;;;5.70;1.50;;;8.90;98.00;;;;;;5096489;28;20058;-73
2022/03/30 13:13:36;;;;;;;4.78;0.93;;;8.80;98.60;;;;;;5077212;28;20052;-74